Terminal Aerodrome Forecast
Issued by NWS

Home | Current Version | Previous Version | Text Only | Print | Product List | Glossary On
Versions: 1 2 3 4 5 6 7 8 9 10 11 12 13 14 15
000
FTUS42 KGSP 181100
TAFAND
TAF
KAND 181133Z 1812/1912 06009KT P6SM FEW025 SCT050 OVC200
     FM181600 06010KT P6SM OVC020
     FM182000 06012G18KT 5SM -RA OVC012
     FM190200 04014G22KT 4SM RA OVC009=

USA.gov is the U.S. government's official web portal to all federal, state and local government web resources and services.